Ana Sayfa
METAR-TAF:

METAR-TAF

Havaalanları :

Casa Grande, Arizona, Amerika Birleşik Devletleri

Enlem: 32-57N, Boylam: 111-46W, yükseklik: 446 m

Güncel hava durumu gözlemi

Rapor saat 06:56 UTC de 39 dakika önce yapıldı.
Rüzgar kuzeydoğudan 3 kt
Sıcaklık 10°C
Nem 87%
Basınç 1016 hPa
Görüş mesafesi: 16.1 km
Açık gökyüzü

METAR: KCGZ 140656Z AUTO 05003KT 10SM CLR 10/08 A3001 RMK AO2 SLP159 T01000078 401940050

Saat: 00:35 (07:35 UTC)


TAF: eksik

4.000'den fazla havaalanı için hava durumu gözlemleri ve tahminleri (METAR ve TAF raporları).

Kullanılabilir istasyonlar harita üzerinde sarı ve kırmızı noktalarla gösterilir.

İstasyonun adını görmek için fareyi noktanın üzerinde gezdirin.

Sonrasında hava gözlem ve tahminlerini görmek için tıklayın.

Haritayı değiştirmek için: yaklaştırmak için siyah artı işaretli yeşil düğmeye ve uzaklaştırmak için de eksi işaretli düğmeye hızla tıklayın; bitişik haritalar için yeşil okları kullanın.


METAR-TAF: